createdAt,value
2023-05-05T00:00:28.685Z,12.25
2023-05-05T00:02:57.245Z,10.38
2023-05-05T00:05:25.826Z,11.40
2023-05-05T00:07:53.721Z,10.15
2023-05-05T00:10:21.427Z,9.88
2023-05-05T00:12:49.377Z,10.82
2023-05-05T00:15:17.533Z,10.15
2023-05-05T00:17:45.517Z,10.85
2023-05-05T00:20:13.575Z,10.05
2023-05-05T00:22:41.320Z,10.30
2023-05-05T00:25:09.610Z,10.18
2023-05-05T00:27:40.170Z,10.13
2023-05-05T00:30:08.949Z,10.02
2023-05-05T00:32:37.547Z,10.68
2023-05-05T00:35:05.818Z,9.88
2023-05-05T00:37:35.290Z,10.77
2023-05-05T00:40:05.610Z,10.40
2023-05-05T00:42:37.697Z,9.97
2023-05-05T00:45:08.112Z,10.30
2023-05-05T00:47:36.761Z,9.85
2023-05-05T00:50:06.837Z,10.20
2023-05-05T00:52:39.815Z,10.90
2023-05-05T00:55:08.088Z,10.20
2023-05-05T00:57:38.921Z,10.15
2023-05-05T01:00:07.413Z,10.80
2023-05-05T01:02:37.042Z,10.57
2023-05-05T01:05:17.763Z,11.30
2023-05-05T01:07:46.388Z,11.07
2023-05-05T01:10:20.398Z,11.35
2023-05-05T01:12:51.353Z,10.80
2023-05-05T01:15:20.069Z,10.18
2023-05-05T01:17:48.408Z,10.43
2023-05-05T01:20:17.466Z,10.18
2023-05-05T01:22:45.528Z,10.18
2023-05-05T01:25:13.803Z,10.13
2023-05-05T01:27:42.212Z,10.20
2023-05-05T01:30:12.518Z,9.57
2023-05-05T01:32:40.481Z,10.93
2023-05-05T01:35:10.770Z,10.10
2023-05-05T01:37:38.712Z,10.68
2023-05-05T01:40:07.911Z,11.05
2023-05-05T01:42:36.218Z,10.30
2023-05-05T01:45:18.211Z,9.90
2023-05-05T01:47:54.920Z,9.52
2023-05-05T01:50:23.116Z,14.02
2023-05-05T01:52:51.444Z,11.55
2023-05-05T01:55:19.529Z,10.27
2023-05-05T01:57:47.576Z,9.82
2023-05-05T02:00:15.295Z,9.80
2023-05-05T02:02:44.321Z,9.73
2023-05-05T02:05:12.348Z,9.48
2023-05-05T02:07:40.340Z,9.63
2023-05-05T02:13:00.075Z,9.05
2023-05-05T02:15:29.735Z,9.73
2023-05-05T02:17:59.551Z,9.88
2023-05-05T02:20:29.526Z,10.40
2023-05-05T02:22:58.421Z,8.90
2023-05-05T02:25:26.549Z,9.40
2023-05-05T02:27:54.605Z,9.65
2023-05-05T02:30:23.185Z,9.60
2023-05-05T02:32:52.121Z,10.20
2023-05-05T02:35:19.820Z,9.75
2023-05-05T02:37:48.126Z,9.50
2023-05-05T02:40:16.062Z,9.13
2023-05-05T02:42:44.711Z,10.00
2023-05-05T02:45:12.992Z,9.68
2023-05-05T02:47:40.849Z,10.15
2023-05-05T02:50:08.966Z,8.65
2023-05-05T02:52:37.684Z,9.30
2023-05-05T02:55:05.579Z,9.18
2023-05-05T02:57:33.757Z,8.75
2023-05-05T03:00:02.054Z,9.15
2023-05-05T03:02:32.415Z,9.25
2023-05-05T03:05:00.232Z,8.70
2023-05-05T03:07:27.999Z,9.15
2023-05-05T03:09:55.689Z,9.38
2023-05-05T03:12:23.969Z,8.57
2023-05-05T03:14:51.766Z,9.32
2023-05-05T03:17:19.336Z,9.13
2023-05-05T03:19:47.152Z,8.82
2023-05-05T03:22:15.104Z,8.88
2023-05-05T03:24:42.757Z,8.60
2023-05-05T03:27:10.804Z,8.73
2023-05-05T03:29:38.588Z,8.35
2023-05-05T03:32:06.566Z,8.45
2023-05-05T03:37:17.323Z,8.55
2023-05-05T03:39:45.458Z,8.20
2023-05-05T03:42:13.839Z,9.27
2023-05-05T03:44:42.365Z,8.55
2023-05-05T03:47:10.350Z,8.20
2023-05-05T03:49:38.216Z,8.57
2023-05-05T03:52:06.222Z,8.55
2023-05-05T03:54:34.402Z,8.45
2023-05-05T03:57:02.324Z,8.65
2023-05-05T03:59:30.216Z,8.13
2023-05-05T04:01:58.041Z,8.18
2023-05-05T04:04:25.958Z,8.40
2023-05-05T04:06:53.862Z,8.82
2023-05-05T04:09:22.448Z,8.52
2023-05-05T04:11:50.315Z,7.78
2023-05-05T04:14:18.426Z,8.57
2023-05-05T04:16:47.066Z,8.52
2023-05-05T04:19:14.930Z,8.25
2023-05-05T04:21:42.839Z,8.48
2023-05-05T04:24:10.462Z,7.53
2023-05-05T04:26:38.678Z,8.15
2023-05-05T04:29:07.148Z,8.20
2023-05-05T04:31:35.097Z,8.15
2023-05-05T04:34:02.838Z,7.72
2023-05-05T04:36:30.801Z,8.25
2023-05-05T04:38:59.419Z,7.85
2023-05-05T04:41:29.471Z,7.88
2023-05-05T04:43:58.243Z,7.65
2023-05-05T04:46:26.540Z,7.38
2023-05-05T04:48:54.532Z,7.63
2023-05-05T04:51:22.259Z,7.63
2023-05-05T04:53:50.271Z,7.40
2023-05-05T04:56:18.123Z,7.80
2023-05-05T04:58:46.172Z,7.45
2023-05-05T05:01:13.779Z,7.60
2023-05-05T05:03:41.533Z,7.13
2023-05-05T05:06:09.555Z,7.57
2023-05-05T05:08:37.680Z,7.65
2023-05-05T05:11:05.719Z,7.95
2023-05-05T05:13:33.737Z,7.30
2023-05-05T05:16:01.527Z,7.30
2023-05-05T05:18:29.292Z,7.70
2023-05-05T05:20:58.282Z,7.25
2023-05-05T05:23:35.882Z,7.50
2023-05-05T05:26:03.750Z,7.53
2023-05-05T05:28:33.249Z,8.07
2023-05-05T05:31:01.216Z,7.13
2023-05-05T05:33:29.322Z,7.80
2023-05-05T05:35:57.433Z,7.25
2023-05-05T05:38:25.602Z,7.65
2023-05-05T05:40:53.891Z,7.57
2023-05-05T05:43:21.695Z,8.18
2023-05-05T05:45:49.553Z,7.97
2023-05-05T05:48:17.860Z,7.45
2023-05-05T05:50:46.231Z,8.18
2023-05-05T05:53:14.222Z,7.60
2023-05-05T05:55:42.358Z,6.95
2023-05-05T05:58:10.098Z,7.13
2023-05-05T06:00:39.632Z,7.15
2023-05-05T06:03:08.172Z,7.43
2023-05-05T06:05:36.252Z,7.82
2023-05-05T06:08:06.581Z,7.88
2023-05-05T06:10:34.700Z,7.55
2023-05-05T06:13:02.837Z,7.88
2023-05-05T06:15:30.594Z,8.00
2023-05-05T06:17:58.526Z,7.43
2023-05-05T06:20:26.212Z,8.05
2023-05-05T06:22:54.213Z,7.25
2023-05-05T06:25:23.766Z,7.53
2023-05-05T06:27:51.465Z,8.10
2023-05-05T06:30:19.340Z,8.00
2023-05-05T06:32:47.310Z,7.82
2023-05-05T06:35:15.957Z,7.80
2023-05-05T06:37:44.557Z,8.25
2023-05-05T06:40:12.591Z,7.47
2023-05-05T06:42:40.858Z,7.68
2023-05-05T06:45:08.842Z,8.02
2023-05-05T06:47:37.324Z,7.93
2023-05-05T06:50:06.386Z,8.63
2023-05-05T06:52:35.156Z,8.13
2023-05-05T06:55:02.904Z,8.10
2023-05-05T06:57:30.899Z,8.32
2023-05-05T06:59:58.897Z,7.47
2023-05-05T07:02:27.018Z,7.57
2023-05-05T07:04:54.796Z,7.45
2023-05-05T07:07:22.723Z,7.57
2023-05-05T07:09:50.703Z,7.15
2023-05-05T07:12:18.344Z,7.22
2023-05-05T07:14:46.038Z,7.22
2023-05-05T07:17:13.889Z,6.97
2023-05-05T07:19:41.801Z,6.72
2023-05-05T07:22:09.918Z,7.18
2023-05-05T07:24:37.739Z,6.65
2023-05-05T07:27:05.509Z,7.22
2023-05-05T07:29:34.189Z,7.00
2023-05-05T07:32:02.075Z,6.97
2023-05-05T07:34:29.725Z,7.65
2023-05-05T07:36:57.295Z,6.93
2023-05-05T07:39:25.434Z,6.97
2023-05-05T07:41:53.085Z,6.75
2023-05-05T07:44:21.063Z,6.50
2023-05-05T07:46:49.215Z,6.88
2023-05-05T07:49:16.867Z,7.25
2023-05-05T07:51:44.644Z,7.25
2023-05-05T07:54:12.353Z,6.95
2023-05-05T07:56:40.166Z,7.15
2023-05-05T07:59:08.120Z,7.05
2023-05-05T08:01:36.059Z,7.00
2023-05-05T08:04:03.865Z,7.00
2023-05-05T08:06:31.803Z,6.65
2023-05-05T08:09:00.118Z,6.97
2023-05-05T08:11:29.576Z,6.78
2023-05-05T08:13:57.586Z,7.15
2023-05-05T08:16:25.432Z,6.70
2023-05-05T08:18:53.155Z,7.18
2023-05-05T08:21:21.116Z,7.20
2023-05-05T08:23:48.795Z,7.40
2023-05-05T08:26:16.582Z,7.00
2023-05-05T08:28:44.413Z,7.30
2023-05-05T08:31:12.084Z,6.93
2023-05-05T08:33:39.855Z,6.68
2023-05-05T08:36:07.829Z,6.45
2023-05-05T08:38:35.657Z,6.88
2023-05-05T08:41:03.732Z,6.90
2023-05-05T08:43:32.218Z,6.65
2023-05-05T08:45:59.997Z,7.22
2023-05-05T08:48:27.785Z,7.15
2023-05-05T08:50:56.702Z,6.93
2023-05-05T08:53:29.487Z,8.25
2023-05-05T08:55:57.206Z,6.63
2023-05-05T08:58:28.263Z,8.13
2023-05-05T09:00:56.890Z,7.28
2023-05-05T09:03:25.022Z,6.88
2023-05-05T09:05:52.949Z,6.88
2023-05-05T09:08:21.070Z,6.72
2023-05-05T09:10:48.941Z,7.70
2023-05-05T09:13:17.014Z,8.20
2023-05-05T09:15:45.153Z,8.15
2023-05-05T09:18:13.704Z,7.20
2023-05-05T09:20:41.578Z,6.35
2023-05-05T09:23:09.345Z,5.97
2023-05-05T09:25:37.618Z,6.93
2023-05-05T09:28:05.161Z,6.00
2023-05-05T09:30:34.000Z,6.45
2023-05-05T09:33:01.760Z,6.68
2023-05-05T09:35:29.513Z,6.53
2023-05-05T09:37:57.159Z,6.47
2023-05-05T09:40:25.184Z,6.20
2023-05-05T09:42:52.678Z,6.63
2023-05-05T09:45:20.416Z,6.47
2023-05-05T09:47:49.086Z,6.00
2023-05-05T09:50:17.591Z,6.78
2023-05-05T09:52:46.699Z,6.68
2023-05-05T09:55:15.718Z,6.60
2023-05-05T09:57:52.513Z,6.70
2023-05-05T10:00:20.561Z,6.57
2023-05-05T10:02:49.965Z,7.15
2023-05-05T10:05:18.337Z,7.07
2023-05-05T10:07:46.294Z,7.57
2023-05-05T10:10:14.005Z,7.28
2023-05-05T10:12:42.116Z,6.38
2023-05-05T10:15:11.009Z,6.50
2023-05-05T10:17:41.337Z,6.28
2023-05-05T10:20:11.820Z,6.72
2023-05-05T10:22:41.714Z,6.57
2023-05-05T10:25:09.482Z,6.80
2023-05-05T10:27:40.018Z,5.88
2023-05-05T10:30:11.437Z,6.60
2023-05-05T10:35:09.702Z,6.95
2023-05-05T10:37:38.307Z,8.02
2023-05-05T10:40:08.465Z,9.70
2023-05-05T10:42:41.283Z,11.00
2023-05-05T10:45:10.821Z,12.40
2023-05-05T10:47:38.905Z,13.05
2023-05-05T10:50:07.692Z,23.15
2023-05-05T10:52:37.728Z,16.20
2023-05-05T10:55:16.210Z,14.07
2023-05-05T10:57:43.956Z,13.43
2023-05-05T11:00:12.894Z,10.30
2023-05-05T11:02:42.435Z,8.00
2023-05-05T11:05:12.077Z,8.60
2023-05-05T11:07:40.954Z,8.73
2023-05-05T11:10:09.091Z,7.90
2023-05-05T11:12:38.836Z,7.60
2023-05-05T11:15:07.587Z,7.82
2023-05-05T11:17:37.891Z,7.15
2023-05-05T11:20:05.830Z,7.32
2023-05-05T11:22:34.847Z,7.03
2023-05-05T11:25:02.858Z,6.90
2023-05-05T11:27:30.421Z,6.97
2023-05-05T11:29:58.411Z,6.75
2023-05-05T11:32:26.631Z,7.13
2023-05-05T11:34:54.209Z,6.63
2023-05-05T11:37:21.801Z,8.07
2023-05-05T11:39:49.717Z,7.65
2023-05-05T11:42:17.403Z,7.93
2023-05-05T11:44:45.143Z,8.00
2023-05-05T11:47:13.109Z,7.60
2023-05-05T11:49:40.997Z,9.02
2023-05-05T11:52:08.769Z,9.00
2023-05-05T11:54:36.991Z,9.40
2023-05-05T11:57:24.411Z,9.63
2023-05-05T11:59:52.443Z,8.65
2023-05-05T12:02:20.112Z,8.23
2023-05-05T12:04:47.938Z,8.90
2023-05-05T12:07:15.927Z,9.45
2023-05-05T12:09:43.768Z,9.05
2023-05-05T12:12:11.636Z,7.45
2023-05-05T12:14:39.518Z,7.65
2023-05-05T12:17:08.504Z,7.43
2023-05-05T12:19:45.766Z,6.90
2023-05-05T12:22:13.855Z,7.55
2023-05-05T12:24:41.878Z,8.52
2023-05-05T12:27:10.147Z,8.32
2023-05-05T12:29:38.257Z,7.68
2023-05-05T12:32:06.019Z,8.38
2023-05-05T12:34:33.690Z,7.55
2023-05-05T12:37:01.414Z,7.68
2023-05-05T12:39:29.097Z,7.43
2023-05-05T12:41:56.788Z,8.30
2023-05-05T12:44:24.702Z,7.47
2023-05-05T12:46:52.360Z,7.78
2023-05-05T12:49:20.656Z,7.75
2023-05-05T12:51:49.330Z,7.97
2023-05-05T12:54:17.392Z,8.00
2023-05-05T12:56:45.530Z,8.15
2023-05-05T12:59:13.681Z,8.25
2023-05-05T13:01:41.398Z,8.80
2023-05-05T13:04:09.207Z,8.15
2023-05-05T13:06:37.361Z,8.57
2023-05-05T13:09:05.583Z,8.55
2023-05-05T13:11:38.061Z,8.23
2023-05-05T13:14:08.935Z,8.45
2023-05-05T13:16:36.572Z,7.05
2023-05-05T13:19:24.120Z,8.07
2023-05-05T13:21:51.837Z,8.13
2023-05-05T13:24:28.786Z,8.80
2023-05-05T13:27:06.510Z,8.45
2023-05-05T13:29:34.486Z,8.43
2023-05-05T13:32:02.244Z,8.10
2023-05-05T13:34:31.111Z,8.13
2023-05-05T13:36:58.971Z,8.30
2023-05-05T13:39:27.288Z,8.95
2023-05-05T13:41:54.988Z,9.00
2023-05-05T13:44:22.983Z,8.82
2023-05-05T13:46:52.219Z,8.23
2023-05-05T13:49:20.362Z,9.32
2023-05-05T13:51:48.411Z,8.90
2023-05-05T13:54:16.295Z,8.52
2023-05-05T13:56:44.188Z,8.43
2023-05-05T13:59:17.540Z,9.30
2023-05-05T14:01:45.395Z,9.02
2023-05-05T14:04:13.186Z,8.30
2023-05-05T14:06:41.292Z,9.05
2023-05-05T14:09:09.869Z,9.48
2023-05-05T14:11:37.892Z,9.50
2023-05-05T14:14:06.206Z,9.02
2023-05-05T14:16:34.351Z,9.18
2023-05-05T14:19:02.039Z,10.48
2023-05-05T14:21:30.031Z,10.88
2023-05-05T14:23:58.298Z,12.07
2023-05-05T14:26:26.260Z,11.57
2023-05-05T14:28:54.506Z,10.80
2023-05-05T14:31:23.169Z,10.63
2023-05-05T14:33:51.100Z,10.77
2023-05-05T14:36:18.802Z,10.07
2023-05-05T14:38:47.990Z,9.95
2023-05-05T14:41:15.842Z,10.18
2023-05-05T14:43:43.724Z,10.10
2023-05-05T14:46:11.763Z,10.30
2023-05-05T14:48:39.611Z,9.65
2023-05-05T14:51:07.355Z,9.45
2023-05-05T14:53:35.192Z,9.90
2023-05-05T14:56:02.977Z,10.10
2023-05-05T14:58:31.191Z,10.15
2023-05-05T15:01:01.163Z,10.85
2023-05-05T15:03:29.073Z,10.60
2023-05-05T15:06:08.019Z,10.23
2023-05-05T15:08:36.035Z,10.82
2023-05-05T15:11:04.709Z,10.07
2023-05-05T15:13:32.884Z,11.00
2023-05-05T15:16:00.922Z,10.10
2023-05-05T15:18:28.620Z,10.75
2023-05-05T15:20:56.544Z,11.20
2023-05-05T15:23:24.217Z,12.38
2023-05-05T15:25:52.092Z,11.63
2023-05-05T15:28:21.125Z,11.43
2023-05-05T15:30:49.221Z,11.65
2023-05-05T15:33:17.110Z,11.85
2023-05-05T15:35:44.945Z,11.48
2023-05-05T15:38:13.154Z,11.25
2023-05-05T15:40:40.909Z,11.13
2023-05-05T15:43:08.802Z,11.93
2023-05-05T15:45:36.761Z,11.18
2023-05-05T15:48:05.015Z,11.38
2023-05-05T15:50:33.204Z,10.93
2023-05-05T15:53:01.604Z,10.05
2023-05-05T15:55:29.658Z,10.55
2023-05-05T15:57:57.452Z,10.75
2023-05-05T16:00:25.547Z,9.98
2023-05-05T16:02:53.395Z,10.02
2023-05-05T16:05:22.820Z,10.20
2023-05-05T16:07:51.064Z,11.23
2023-05-05T16:10:18.776Z,11.48
2023-05-05T16:12:46.545Z,10.80
2023-05-05T16:15:14.285Z,11.05
2023-05-05T16:17:42.393Z,11.52
2023-05-05T16:20:11.463Z,10.77
2023-05-05T16:22:40.821Z,10.95
2023-05-05T16:25:09.304Z,10.60
2023-05-05T16:27:37.339Z,11.55
2023-05-05T16:30:06.263Z,10.93
2023-05-05T16:32:34.107Z,11.27
2023-05-05T16:35:02.634Z,11.15
2023-05-05T16:37:30.854Z,10.55
2023-05-05T16:39:58.856Z,10.57
2023-05-05T16:42:26.541Z,10.27
2023-05-05T16:44:54.775Z,10.45
2023-05-05T16:47:22.703Z,10.93
2023-05-05T16:49:50.644Z,9.80
2023-05-05T16:52:19.179Z,10.25
2023-05-05T16:54:46.985Z,10.60
2023-05-05T16:57:14.965Z,10.85
2023-05-05T16:59:43.266Z,9.80
2023-05-05T17:02:11.464Z,9.88
2023-05-05T17:04:39.440Z,9.98
2023-05-05T17:07:07.881Z,10.00
2023-05-05T17:09:36.006Z,10.00
2023-05-05T17:12:04.430Z,10.15
2023-05-05T17:14:34.046Z,9.48
2023-05-05T17:17:02.545Z,9.88
2023-05-05T17:19:31.528Z,10.23
2023-05-05T17:21:59.661Z,9.98
2023-05-05T17:24:27.545Z,10.20
2023-05-05T17:26:55.264Z,11.05
2023-05-05T17:29:23.912Z,10.57
2023-05-05T17:31:51.849Z,10.63
2023-05-05T17:34:20.834Z,10.52
2023-05-05T17:36:48.953Z,9.98
2023-05-05T17:39:16.935Z,10.57
2023-05-05T17:41:45.087Z,10.25
2023-05-05T17:44:13.416Z,10.38
2023-05-05T17:46:41.510Z,10.65
2023-05-05T17:49:09.928Z,9.77
2023-05-05T17:51:38.875Z,10.23
2023-05-05T17:54:06.926Z,10.07
2023-05-05T17:56:35.090Z,10.02
2023-05-05T17:59:03.048Z,10.63
2023-05-05T18:01:31.713Z,10.15
2023-05-05T18:03:59.452Z,10.23
2023-05-05T18:06:27.760Z,10.13
2023-05-05T18:08:56.060Z,10.38
2023-05-05T18:11:24.334Z,10.02
2023-05-05T18:13:52.595Z,10.07
2023-05-05T18:16:20.690Z,10.00
2023-05-05T18:18:48.555Z,9.82
2023-05-05T18:21:16.626Z,9.90
2023-05-05T18:23:44.308Z,9.77
2023-05-05T18:26:12.077Z,10.07
2023-05-05T18:28:39.876Z,10.60
2023-05-05T18:31:07.639Z,10.15
2023-05-05T18:33:35.340Z,10.15
2023-05-05T18:36:03.682Z,10.20
2023-05-05T18:38:32.733Z,10.63
2023-05-05T18:41:00.521Z,10.40
2023-05-05T18:43:28.491Z,9.43
2023-05-05T18:45:56.265Z,10.15
2023-05-05T18:48:24.575Z,10.50
2023-05-05T18:50:52.666Z,10.43
2023-05-05T18:53:20.408Z,10.10
2023-05-05T18:55:48.528Z,10.85
2023-05-05T18:58:16.552Z,10.77
2023-05-05T19:00:44.339Z,10.05
2023-05-05T19:03:12.791Z,10.75
2023-05-05T19:05:49.581Z,11.02
2023-05-05T19:08:17.402Z,9.95
2023-05-05T19:10:45.301Z,10.15
2023-05-05T19:13:17.764Z,9.88
2023-05-05T19:15:50.123Z,10.38
2023-05-05T19:18:18.357Z,10.20
2023-05-05T19:20:45.958Z,10.85
2023-05-05T19:23:15.694Z,10.55
2023-05-05T19:25:43.767Z,10.38
2023-05-05T19:28:11.510Z,10.27
2023-05-05T19:30:39.148Z,10.50
2023-05-05T19:33:08.888Z,9.77
2023-05-05T19:35:41.107Z,10.05
2023-05-05T19:38:09.524Z,10.30
2023-05-05T19:40:38.371Z,9.70
2023-05-05T19:43:06.269Z,10.75
2023-05-05T19:45:36.037Z,10.73
2023-05-05T19:48:04.469Z,10.55
2023-05-05T19:50:32.264Z,10.45
2023-05-05T19:53:00.682Z,9.95
2023-05-05T19:55:32.502Z,10.07
2023-05-05T19:58:00.774Z,10.73
2023-05-05T20:00:29.014Z,9.75
2023-05-05T20:03:01.030Z,10.13
2023-05-05T20:05:29.283Z,11.38
2023-05-05T20:08:05.927Z,10.93
2023-05-05T20:10:34.042Z,11.07
2023-05-05T20:13:01.879Z,10.82
2023-05-05T20:15:31.300Z,10.73
2023-05-05T20:18:08.306Z,10.25
2023-05-05T20:20:39.058Z,10.45
2023-05-05T20:23:22.968Z,10.73
2023-05-05T20:25:52.134Z,10.43
2023-05-05T20:28:22.247Z,10.40
2023-05-05T20:30:52.701Z,10.45
2023-05-05T20:33:23.687Z,10.80
2023-05-05T20:35:56.271Z,10.20
2023-05-05T20:38:24.897Z,10.57
2023-05-05T20:41:00.370Z,10.52
2023-05-05T20:43:31.514Z,9.77
2023-05-05T20:46:00.784Z,10.02
2023-05-05T20:51:14.512Z,10.38
2023-05-05T20:53:43.711Z,10.10
2023-05-05T20:56:14.428Z,10.18
2023-05-05T20:58:48.511Z,10.70
2023-05-05T21:01:17.809Z,10.00
2023-05-05T21:03:51.854Z,10.65
2023-05-05T21:06:39.292Z,9.95
2023-05-05T21:09:18.971Z,10.13
2023-05-05T21:12:05.415Z,10.50
2023-05-05T21:14:34.441Z,10.27
2023-05-05T21:17:08.819Z,12.65
2023-05-05T21:19:38.991Z,13.98
2023-05-05T21:22:20.791Z,12.27
2023-05-05T21:24:52.529Z,11.18
2023-05-05T21:27:40.287Z,11.60
2023-05-05T21:30:10.674Z,14.68
2023-05-05T21:32:43.718Z,13.25
2023-05-05T21:37:48.488Z,11.88
2023-05-05T21:40:16.688Z,11.98
2023-05-05T21:42:45.470Z,11.35
2023-05-05T21:45:16.208Z,10.70
2023-05-05T21:47:44.354Z,11.23
2023-05-05T21:50:12.645Z,13.13
2023-05-05T21:52:45.550Z,11.13
2023-05-05T21:55:13.849Z,10.57
2023-05-05T21:57:42.492Z,11.30
2023-05-05T22:00:11.701Z,12.18
2023-05-05T22:02:49.648Z,11.50
2023-05-05T22:05:18.579Z,11.82
2023-05-05T22:07:46.267Z,12.52
2023-05-05T22:10:18.632Z,11.85
2023-05-05T22:12:49.648Z,11.10
2023-05-05T22:15:20.061Z,11.85
2023-05-05T22:17:48.309Z,11.93
2023-05-05T22:20:18.065Z,11.38
2023-05-05T22:22:56.844Z,12.00
2023-05-05T22:25:27.981Z,11.85
2023-05-05T22:27:58.754Z,11.15
2023-05-05T22:30:27.206Z,11.35
2023-05-05T22:32:55.410Z,11.90
2023-05-05T22:35:23.403Z,12.25
2023-05-05T22:37:51.851Z,11.90
2023-05-05T22:40:19.682Z,12.05
2023-05-05T22:42:49.067Z,11.70
2023-05-05T22:45:17.215Z,11.07
2023-05-05T22:47:44.870Z,11.82
2023-05-05T22:50:13.908Z,12.07
2023-05-05T22:52:42.348Z,12.30
2023-05-05T22:55:10.456Z,12.77
2023-05-05T22:57:39.558Z,13.27
2023-05-05T23:00:07.840Z,12.40
2023-05-05T23:02:37.657Z,12.82
2023-05-05T23:05:06.714Z,47.88
2023-05-05T23:07:38.081Z,24.08
2023-05-05T23:10:07.968Z,19.23
2023-05-05T23:12:37.074Z,16.73
2023-05-05T23:15:08.240Z,14.27
2023-05-05T23:17:38.039Z,13.40
2023-05-05T23:20:07.741Z,12.23
2023-05-05T23:22:37.433Z,13.35
2023-05-05T23:25:09.077Z,12.70
2023-05-05T23:27:38.443Z,13.10
2023-05-05T23:30:06.695Z,12.68
2023-05-05T23:32:36.740Z,12.35
2023-05-05T23:35:04.657Z,12.65
2023-05-05T23:37:33.416Z,13.98
2023-05-05T23:40:01.599Z,14.05
2023-05-05T23:42:29.854Z,13.40
2023-05-05T23:44:58.021Z,12.02
2023-05-05T23:47:26.140Z,11.45
2023-05-05T23:49:54.259Z,11.82
2023-05-05T23:52:23.385Z,10.77
2023-05-05T23:54:52.864Z,11.70
2023-05-05T23:57:20.495Z,11.23
2023-05-05T23:59:52.100Z,12.18
